Time;durP1;ratioP1;P1;durP2;ratioP2;P2;SDS_P1;SDS_P2;PMS_P1;PMS_P2;Temp;Humidity;BMP_temperature;BMP_pressure;BME280_temperature;BME280_humidity;BME280_pressure;Samples;Min_cycle;Max_cycle;Signal;HPM_P1;HPM_P2
2022/07/16 00:02:57;;;;;;;4.47;2.83;;;;;;;24.78;49.75;99678.56;5083012;28;20112;-74
2022/07/16 00:05:22;;;;;;;7.20;2.90;;;;;;;24.64;50.12;99689.00;5080717;28;20032;-74
2022/07/16 00:07:48;;;;;;;6.55;2.90;;;;;;;24.52;51.02;99696.44;5082108;28;20237;-74
2022/07/16 00:10:13;;;;;;;6.00;2.50;;;;;;;24.24;52.60;99696.63;5063421;28;20024;-74
2022/07/16 00:12:39;;;;;;;4.95;3.35;;;;;;;23.77;53.98;99713.31;5083026;28;20040;-74
2022/07/16 00:15:05;;;;;;;8.15;3.95;;;;;;;23.21;55.48;99715.94;5083905;28;20313;-74
2022/07/16 00:17:31;;;;;;;5.57;3.35;;;;;;;22.99;56.29;99716.91;5063335;28;20318;-74
2022/07/16 00:19:57;;;;;;;6.03;3.20;;;;;;;22.84;56.83;99712.03;5082810;28;20062;-74
2022/07/16 00:22:22;;;;;;;8.52;3.33;;;;;;;22.86;56.15;99712.59;5081979;28;20028;-74
2022/07/16 00:24:48;;;;;;;10.60;3.47;;;;;;;22.86;55.86;99712.59;5080678;28;20059;-74
2022/07/16 00:27:13;;;;;;;5.35;3.00;;;;;;;23.06;55.19;99704.06;5079770;28;20206;-74
2022/07/16 00:29:39;;;;;;;7.05;3.30;;;;;;;23.23;54.43;99694.09;5082789;28;20336;-74
2022/07/16 00:32:04;;;;;;;7.82;3.38;;;;;;;23.41;54.37;99699.25;5081915;28;20037;-74
2022/07/16 00:34:30;;;;;;;6.20;2.90;;;;;;;23.58;53.42;99704.66;5082840;28;20206;-74
2022/07/16 00:36:55;;;;;;;8.18;3.28;;;;;;;23.61;53.30;99708.75;5081779;28;20261;-74
2022/07/16 00:39:21;;;;;;;6.45;2.70;;;;;;;23.63;53.45;99709.31;5081501;28;20341;-74
2022/07/16 00:41:48;;;;;;;8.63;3.05;;;;;;;23.65;53.84;99712.59;5063165;28;20043;-74
2022/07/16 00:44:16;;;;;;;7.78;3.28;;;;;;;23.52;54.48;99719.94;5081835;28;20249;-74
2022/07/16 00:46:43;;;;;;;4.25;2.72;;;;;;;23.33;55.02;99715.88;5081541;28;20227;-74
2022/07/16 00:49:09;;;;;;;6.45;3.05;;;;;;;23.32;54.75;99713.41;5081168;28;20052;-74
2022/07/16 00:51:36;;;;;;;17.00;3.47;;;;;;;23.32;53.90;99706.13;5082975;28;20253;-74
2022/07/16 00:54:02;;;;;;;22.42;3.85;;;;;;;23.52;53.60;99705.63;5080359;28;20256;-74
2022/07/16 00:56:28;;;;;;;6.20;3.20;;;;;;;23.60;53.17;99707.94;5079774;28;20090;-73
2022/07/16 00:58:54;;;;;;;8.50;3.28;;;;;;;23.65;53.11;99713.41;5081513;28;20317;-74
2022/07/16 01:01:21;;;;;;;5.45;2.70;;;;;;;23.65;53.05;99701.78;5080567;28;20063;-74
2022/07/16 01:03:46;;;;;;;3.15;2.80;;;;;;;23.65;53.50;99705.31;5080423;28;20060;-74
2022/07/16 01:06:15;;;;;;;8.80;2.80;;;;;;;23.76;53.44;99709.78;5062111;28;20047;-74
2022/07/16 01:08:43;;;;;;;10.15;2.90;;;;;;;23.79;53.22;99705.78;5081948;28;20036;-74
2022/07/16 01:11:10;;;;;;;8.13;2.85;;;;;;;23.71;53.48;99708.91;5081549;28;20029;-74
2022/07/16 01:13:38;;;;;;;7.78;2.97;;;;;;;23.75;53.08;99701.94;5080813;28;20048;-74
2022/07/16 01:16:04;;;;;;;5.07;2.80;;;;;;;23.81;52.95;99704.44;5064229;28;20231;-74
2022/07/16 01:18:30;;;;;;;5.43;2.55;;;;;;;23.64;53.52;99695.56;5081297;28;20035;-74
2022/07/16 01:20:56;;;;;;;3.80;2.50;;;;;;;23.68;53.30;99698.59;5081139;28;20048;-74
2022/07/16 01:23:25;;;;;;;4.20;2.80;;;;;;;23.79;52.77;99692.25;5080545;28;20028;-74
2022/07/16 01:25:51;;;;;;;6.30;2.90;;;;;;;23.59;52.53;99687.38;5059819;28;20037;-74
2022/07/16 01:28:17;;;;;;;3.22;2.15;;;;;;;23.70;51.66;99683.75;5060893;28;20283;-74
2022/07/16 01:30:43;;;;;;;3.63;2.53;;;;;;;23.85;50.99;99681.25;5060308;28;20025;-74
2022/07/16 01:33:21;;;;;;;9.43;2.58;;;;;;;24.00;50.54;99680.66;5060069;28;20036;-74
2022/07/16 01:35:48;;;;;;;5.75;2.47;;;;;;;23.88;50.97;99669.94;5061333;28;20101;-74
2022/07/16 01:38:13;;;;;;;7.22;3.20;;;;;;;23.81;51.63;99692.81;5062649;28;20219;-74
2022/07/16 01:40:39;;;;;;;8.93;3.78;;;;;;;23.54;52.48;99698.09;5063087;28;20029;-74
2022/07/16 01:43:15;;;;;;;5.05;2.88;;;;;;;23.23;53.61;99704.91;5065256;28;20377;-74
2022/07/16 01:45:41;;;;;;;6.13;3.15;;;;;;;22.79;54.63;99674.13;5065435;28;20326;-74
2022/07/16 01:48:06;;;;;;;5.82;3.40;;;;;;;22.76;55.68;99698.91;5064207;28;20127;-75
2022/07/16 01:50:32;;;;;;;8.45;3.58;;;;;;;22.71;56.04;99699.63;5063969;28;20075;-74
2022/07/16 01:52:57;;;;;;;6.65;3.60;;;;;;;22.78;56.17;99694.06;5064244;28;20033;-74
2022/07/16 01:55:23;;;;;;;10.02;3.78;;;;;;;22.91;55.95;99691.13;5063804;28;20033;-74
2022/07/16 01:57:48;;;;;;;4.72;3.50;;;;;;;22.98;55.28;99690.97;5065109;28;20381;-74
2022/07/16 02:00:14;;;;;;;8.38;3.65;;;;;;;23.01;54.74;99688.59;5064163;28;20075;-74
2022/07/16 02:02:39;;;;;;;7.53;3.72;;;;;;;23.00;55.10;99691.56;5065410;28;20215;-74
2022/07/16 02:05:05;;;;;;;16.88;4.20;;;;;;;23.06;54.90;99691.38;5063306;28;21345;-74
2022/07/16 02:07:31;;;;;;;6.82;3.25;;;;;;;22.91;54.87;99681.16;5061401;28;20036;-74
2022/07/16 02:09:56;;;;;;;6.53;3.58;;;;;;;23.05;54.50;99695.16;5064408;28;20039;-74
2022/07/16 02:12:21;;;;;;;9.73;3.60;;;;;;;23.05;53.98;99694.34;5065676;28;20334;-74
2022/07/16 02:14:47;;;;;;;7.50;2.60;;;;;;;22.98;53.54;99689.09;5064495;28;20307;-74
2022/07/16 02:17:12;;;;;;;5.32;2.45;;;;;;;23.12;53.07;99698.50;5061983;28;20033;-74
2022/07/16 02:19:38;;;;;;;4.80;2.50;;;;;;;23.19;52.52;99696.47;5066318;28;20059;-74
2022/07/16 02:22:04;;;;;;;5.93;2.75;;;;;;;23.05;52.41;99694.34;5063344;28;20281;-74
2022/07/16 02:24:29;;;;;;;4.30;2.58;;;;;;;23.14;51.87;99682.88;5068588;28;20195;-74
2022/07/16 02:26:55;;;;;;;4.30;2.42;;;;;;;23.24;52.44;99701.13;5083543;28;20044;-74
2022/07/16 02:29:20;;;;;;;6.57;3.15;;;;;;;23.29;52.25;99695.00;5082228;28;20032;-74
2022/07/16 02:31:46;;;;;;;8.77;3.28;;;;;;;23.30;52.19;99696.63;5084372;28;20073;-74
2022/07/16 02:34:11;;;;;;;5.97;2.70;;;;;;;23.38;51.88;99697.03;5082657;28;20238;-74
2022/07/16 02:36:37;;;;;;;7.50;3.10;;;;;;;23.31;52.30;99699.09;5084556;28;20051;-74
2022/07/16 02:39:02;;;;;;;12.18;3.08;;;;;;;23.18;52.73;99689.44;5064752;28;20012;-74
2022/07/16 02:41:28;;;;;;;10.20;3.25;;;;;;;23.31;52.39;99701.78;5081876;28;20047;-74
2022/07/16 02:43:53;;;;;;;8.70;2.60;;;;;;;23.20;52.77;99687.31;5083981;28;20042;-74
2022/07/16 02:46:19;;;;;;;9.52;2.95;;;;;;;23.21;52.45;99693.53;5082479;28;20044;-74
2022/07/16 02:48:44;;;;;;;4.88;2.53;;;;;;;23.17;52.73;99708.59;5065732;28;20027;-74
2022/07/16 02:51:10;;;;;;;6.07;2.90;;;;;;;22.85;53.19;99708.28;5082471;28;20427;-74
2022/07/16 02:53:35;;;;;;;8.32;3.25;;;;;;;22.44;55.58;99722.84;5081812;28;20214;-74
2022/07/16 02:56:01;;;;;;;7.18;3.22;;;;;;;22.05;57.52;99730.69;5083213;28;20040;-73
2022/07/16 02:58:26;;;;;;;4.80;3.17;;;;;;;21.84;58.78;99729.38;5082098;28;20046;-74
2022/07/16 03:00:52;;;;;;;7.13;3.85;;;;;;;21.90;58.47;99725.75;5066153;28;20029;-74
2022/07/16 03:03:17;;;;;;;7.57;3.47;;;;;;;21.93;58.40;99730.69;5082252;28;20032;-74
2022/07/16 03:05:43;;;;;;;11.18;3.50;;;;;;;22.07;57.75;99731.28;5082329;28;20044;-74
2022/07/16 03:08:08;;;;;;;7.53;3.00;;;;;;;22.12;57.47;99730.56;5082411;28;20025;-74
2022/07/16 03:10:34;;;;;;;12.75;3.22;;;;;;;22.05;57.89;99733.41;5082814;28;20099;-74
2022/07/16 03:12:59;;;;;;;4.00;2.92;;;;;;;21.86;57.85;99705.72;5082147;28;20063;-74
2022/07/16 03:15:25;;;;;;;5.68;3.35;;;;;;;21.81;58.14;99740.63;5081741;28;20314;-74
2022/07/16 03:17:50;;;;;;;6.70;3.45;;;;;;;21.62;58.70;99742.63;5085108;28;20292;-74
2022/07/16 03:20:15;;;;;;;8.73;3.40;;;;;;;21.67;58.83;99742.75;5083527;28;20029;-74
2022/07/16 03:22:45;;;;;;;7.82;3.08;;;;;;;21.77;58.52;99744.84;5081546;28;20337;-74
2022/07/16 03:25:13;;;;;;;7.88;3.28;;;;;;;21.82;58.66;99728.78;5083354;28;20048;-74
2022/07/16 03:27:38;;;;;;;10.23;3.40;;;;;;;21.96;58.32;99740.16;5081947;28;20051;-74
2022/07/16 03:30:04;;;;;;;6.07;2.75;;;;;;;21.99;58.14;99735.13;5081918;28;20036;-74
2022/07/16 03:32:29;;;;;;;7.93;3.03;;;;;;;22.20;58.08;99736.41;5082885;28;20040;-74
2022/07/16 03:34:55;;;;;;;6.03;3.30;;;;;;;22.27;57.83;99733.56;5082441;28;20023;-74
2022/07/16 03:37:20;;;;;;;8.88;2.97;;;;;;;22.22;57.99;99726.19;5083016;28;20036;-74
2022/07/16 03:39:46;;;;;;;7.45;3.20;;;;;;;22.28;58.31;99730.66;5081698;28;20024;-74
2022/07/16 03:42:11;;;;;;;5.35;3.38;;;;;;;22.21;58.80;99718.34;5081143;28;20036;-74
2022/07/16 03:44:37;;;;;;;17.98;3.80;;;;;;;22.25;59.09;99738.38;5081989;28;20050;-74
2022/07/16 03:47:02;;;;;;;11.00;3.72;;;;;;;22.23;58.98;99737.81;5083041;28;20040;-74
2022/07/16 03:49:28;;;;;;;8.48;3.58;;;;;;;22.36;58.73;99740.25;5081375;28;20028;-74
2022/07/16 03:51:53;;;;;;;10.48;3.55;;;;;;;22.37;58.59;99736.47;5083311;28;20337;-74
2022/07/16 03:54:19;;;;;;;6.72;3.22;;;;;;;22.51;57.91;99728.94;5081529;28;20029;-74
2022/07/16 03:56:44;;;;;;;9.45;3.03;;;;;;;22.66;57.08;99740.03;5082595;28;20028;-74
2022/07/16 03:59:10;;;;;;;12.93;2.90;;;;;;;22.88;56.13;99732.91;5081482;28;20035;-74
2022/07/16 04:01:36;;;;;;;9.82;3.10;;;;;;;23.10;55.68;99741.16;5079826;28;20036;-75
2022/07/16 04:04:02;;;;;;;8.00;2.80;;;;;;;23.15;54.93;99748.53;5083044;28;20036;-74
2022/07/16 04:06:28;;;;;;;5.72;2.58;;;;;;;23.19;54.83;99750.50;5080280;28;20318;-74
2022/07/16 04:08:53;;;;;;;7.93;2.65;;;;;;;23.12;54.45;99749.84;5081875;28;20035;-74
2022/07/16 04:11:19;;;;;;;8.00;3.08;;;;;;;23.14;54.80;99758.50;5082415;28;20206;-74
2022/07/16 04:13:44;;;;;;;3.60;2.55;;;;;;;23.24;54.97;99749.75;5081029;28;20032;-74
2022/07/16 04:16:10;;;;;;;9.23;3.40;;;;;;;23.31;55.11;99755.00;5082561;28;20329;-74
2022/07/16 04:18:36;;;;;;;5.50;3.22;;;;;;;23.45;53.98;99751.72;5080200;28;20314;-74
2022/07/16 04:21:03;;;;;;;8.73;3.22;;;;;;;23.37;53.62;99749.44;5081655;28;20233;-74
2022/07/16 04:23:28;;;;;;;6.43;4.03;;;;;;;23.54;53.46;99760.25;5080923;28;20615;-74
2022/07/16 04:25:54;;;;;;;10.48;2.88;;;;;;;23.70;52.74;99751.34;5083473;28;20519;-74
2022/07/16 04:28:19;;;;;;;7.00;3.20;;;;;;;23.53;52.61;99761.31;5080983;28;20036;-74
2022/07/16 04:30:45;;;;;;;8.68;3.63;;;;;;;23.52;52.94;99755.09;5080555;28;20032;-74
2022/07/16 04:33:10;;;;;;;10.55;4.90;;;;;;;23.54;52.81;99763.78;5080193;28;20031;-74
2022/07/16 04:35:36;;;;;;;6.97;3.63;;;;;;;23.88;52.74;99764.59;5082263;28;20068;-74
2022/07/16 04:38:01;;;;;;;4.07;2.75;;;;;;;24.00;52.00;99771.81;5080717;28;20032;-75
2022/07/16 04:40:27;;;;;;;7.97;2.70;;;;;;;24.18;51.68;99772.34;5080996;28;20325;-74
2022/07/16 04:42:52;;;;;;;3.65;2.38;;;;;;;24.16;51.49;99769.06;5082811;28;20032;-74
2022/07/16 04:45:18;;;;;;;9.52;2.60;;;;;;;24.36;52.02;99765.00;5062385;28;20038;-74
2022/07/16 04:47:43;;;;;;;8.10;2.95;;;;;;;24.57;51.98;99768.78;5081130;28;20024;-74
2022/07/16 04:50:10;;;;;;;7.05;2.78;;;;;;;24.63;51.42;99771.28;5080019;28;20040;-74
2022/07/16 04:52:35;;;;;;;5.00;2.63;;;;;;;24.72;50.36;99766.25;5079709;28;20079;-74
2022/07/16 04:55:01;;;;;;;17.92;3.05;;;;;;;24.99;49.53;99771.75;5081905;28;20329;-74
2022/07/16 04:57:27;;;;;;;36.80;4.00;;;;;;;25.06;49.34;99775.06;5079984;28;20321;-74
2022/07/16 04:59:53;;;;;;;8.98;3.05;;;;;;;25.34;48.78;99774.78;5080398;28;20028;-74
2022/07/16 05:05:03;;;;;;;;;;;;;;;25.99;46.38;99772.84;5081622;28;20047;-74
2022/07/16 05:07:29;;;;;;;8.45;2.55;;;;;;;25.85;46.81;99772.47;5080175;28;19916;-74
2022/07/16 05:09:54;;;;;;;7.13;2.25;;;;;;;25.98;45.98;99782.06;5080508;28;20107;-74
2022/07/16 05:12:20;;;;;;;8.77;3.05;;;;;;;26.30;45.01;99780.09;5081477;28;20116;-74
2022/07/16 05:14:45;;;;;;;6.50;2.30;;;;;;;26.69;43.81;99777.00;5089403;28;20028;-74
2022/07/16 05:17:10;;;;;;;7.68;2.35;;;;;;;26.85;42.93;99778.69;5085357;28;20096;-74
2022/07/16 05:19:36;;;;;;;23.73;3.45;;;;;;;27.09;42.06;99772.81;5084263;28;20036;-74
2022/07/16 05:22:01;;;;;;;23.63;2.17;;;;;;;27.24;41.77;99781.81;5085268;28;20074;-74
2022/07/16 05:24:27;;;;;;;16.65;2.20;;;;;;;27.35;41.63;99774.47;5084394;28;20055;-74
2022/07/16 05:26:52;;;;;;;8.93;2.10;;;;;;;27.53;41.24;99763.03;5084780;28;20103;-74
2022/07/16 05:29:18;;;;;;;10.18;2.60;;;;;;;27.34;41.54;99779.09;5084074;28;20353;-74
2022/07/16 05:31:43;;;;;;;7.55;2.42;;;;;;;27.44;41.74;99780.19;5065866;28;20024;-74
2022/07/16 05:34:09;;;;;;;5.15;2.38;;;;;;;27.55;41.69;99776.38;5085953;28;20128;-74
2022/07/16 05:36:34;;;;;;;54.03;4.60;;;;;;;27.64;41.71;99781.00;5085550;28;20329;-68
2022/07/16 05:39:00;;;;;;;33.25;3.65;;;;;;;27.89;40.68;99780.16;5084732;28;20028;-68
2022/07/16 05:41:25;;;;;;;22.27;3.08;;;;;;;28.17;40.03;99773.31;5088040;28;20036;-68
2022/07/16 05:43:51;;;;;;;4.35;2.20;;;;;;;28.19;39.48;99776.59;5083776;28;20033;-68
2022/07/16 05:46:16;;;;;;;17.70;2.70;;;;;;;28.26;39.58;99773.59;5084767;28;20061;-68
2022/07/16 05:48:41;;;;;;;64.47;5.22;;;;;;;28.64;39.50;99779.44;5083803;28;20187;-69
2022/07/16 05:51:07;;;;;;;8.27;2.20;;;;;;;28.92;38.86;99779.56;5084711;28;20040;-68
2022/07/16 05:53:32;;;;;;;38.40;4.07;;;;;;;29.19;38.22;99779.16;5083660;28;20032;-68
2022/07/16 05:55:58;;;;;;;35.13;3.45;;;;;;;29.44;36.77;99785.53;5083942;28;20036;-69
2022/07/16 05:58:23;;;;;;;14.23;2.83;;;;;;;29.22;37.62;99775.03;5084399;28;20020;-68
2022/07/16 06:00:49;;;;;;;9.32;2.28;;;;;;;29.51;37.26;99769.66;5084186;28;20037;-68
2022/07/16 06:03:14;;;;;;;28.95;3.55;;;;;;;29.92;37.07;99772.81;5084320;28;20352;-69
2022/07/16 06:05:40;;;;;;;50.78;4.30;;;;;;;30.08;36.26;99768.84;5084576;28;20051;-69
2022/07/16 06:08:05;;;;;;;61.30;5.38;;;;;;;30.29;35.83;99772.19;5065146;28;20028;-68
2022/07/16 06:10:31;;;;;;;19.88;2.63;;;;;;;30.36;34.57;99771.81;5085153;28;20090;-68
2022/07/16 06:12:57;;;;;;;6.40;2.78;;;;;;;30.51;34.47;99771.63;5084125;28;20039;-69
2022/07/16 06:15:23;;;;;;;9.40;2.50;;;;;;;30.32;34.18;99768.06;5084750;28;20086;-69
2022/07/16 06:17:48;;;;;;;12.10;3.42;;;;;;;30.27;34.02;99768.13;5084459;28;20349;-69
2022/07/16 06:20:13;;;;;;;9.45;3.97;;;;;;;30.65;33.96;99761.63;5083691;28;20027;-69
2022/07/16 06:22:39;;;;;;;12.25;3.63;;;;;;;30.64;33.54;99751.00;5084865;28;20047;-68
2022/07/16 06:25:05;;;;;;;7.03;2.90;;;;;;;30.58;33.06;99754.88;5084832;28;20086;-69
2022/07/16 06:27:31;;;;;;;7.70;2.45;;;;;;;30.68;32.55;99749.31;5083260;28;20389;-68
2022/07/16 06:30:02;;;;;;;5.75;2.58;;;;;;;30.91;32.59;99750.34;5084232;28;20028;-69
2022/07/16 06:32:28;;;;;;;7.03;2.55;;;;;;;30.84;32.50;99750.72;5088438;28;20310;-68
2022/07/16 06:34:53;;;;;;;10.00;2.40;;;;;;;31.22;31.90;99751.56;5082183;28;20056;-69
2022/07/16 06:37:18;;;;;;;5.28;2.40;;;;;;;31.46;32.38;99745.16;5083181;28;20037;-68
2022/07/16 06:39:44;;;;;;;9.57;2.63;;;;;;;31.35;32.29;99744.50;5085584;28;20037;-69
2022/07/16 06:42:10;;;;;;;6.97;2.63;;;;;;;31.50;32.29;99738.78;5082181;28;20089;-69
2022/07/16 06:44:35;;;;;;;7.28;2.33;;;;;;;31.61;31.31;99732.00;5084558;28;20028;-69
2022/07/16 06:47:01;;;;;;;8.23;2.15;;;;;;;31.91;30.88;99733.38;5082551;28;20033;-69
2022/07/16 06:49:26;;;;;;;9.27;2.17;;;;;;;31.91;30.22;99741.59;5083299;28;20047;-68
2022/07/16 06:51:52;;;;;;;8.02;3.20;;;;;;;31.71;30.61;99734.59;5083035;28;20225;-68
2022/07/16 06:54:17;;;;;;;73.40;5.82;;;;;;;31.92;30.02;99739.66;5064879;28;20032;-69
2022/07/16 06:56:42;;;;;;;121.45;9.05;;;;;;;32.07;29.88;99744.84;5082881;28;20028;-69
2022/07/16 06:59:08;;;;;;;35.45;3.30;;;;;;;32.12;29.76;99733.78;5082885;28;20183;-69
2022/07/16 07:01:33;;;;;;;22.65;3.00;;;;;;;32.21;29.53;99733.88;5066678;28;20371;-68
2022/07/16 07:03:59;;;;;;;12.45;2.40;;;;;;;32.39;29.07;99733.03;5083232;28;20418;-69
2022/07/16 07:06:24;;;;;;;5.10;1.90;;;;;;;32.50;28.53;99709.75;5083215;28;20044;-69
2022/07/16 07:08:50;;;;;;;8.50;1.95;;;;;;;32.66;28.26;99727.47;5083665;28;20283;-69
2022/07/16 07:11:15;;;;;;;3.70;1.77;;;;;;;32.85;27.83;99723.81;5082304;28;20385;-68
2022/07/16 07:13:41;;;;;;;72.80;6.43;;;;;;;32.94;28.20;99719.19;5081917;28;20240;-69
2022/07/16 07:16:06;;;;;;;61.05;5.80;;;;;;;33.00;27.69;99718.75;5082992;28;21703;-69
2022/07/16 07:18:33;;;;;;;38.47;13.93;;;;;;;33.30;26.90;99719.19;5081695;28;20036;-68
2022/07/16 07:21:02;;;;;;;25.73;17.80;;;;;;;32.95;27.01;99720.81;5083424;28;20063;-68
2022/07/16 07:23:28;;;;;;;11.48;6.03;;;;;;;32.62;27.67;99715.50;5081814;28;20039;-69
2022/07/16 07:25:54;;;;;;;37.80;6.40;;;;;;;32.63;28.67;99719.88;5060633;28;20112;-69
2022/07/16 07:28:19;;;;;;;7.18;2.90;;;;;;;32.96;28.58;99711.47;5062185;28;20269;-69
2022/07/16 07:30:45;;;;;;;23.95;3.67;;;;;;;33.31;26.98;99713.38;5061848;28;20041;-69
2022/07/16 07:33:10;;;;;;;16.90;2.55;;;;;;;33.70;26.41;99709.06;5062106;28;20031;-69
2022/07/16 07:35:36;;;;;;;35.78;4.57;;;;;;;33.97;26.01;99710.81;5060762;28;20033;-69
2022/07/16 07:38:02;;;;;;;10.25;2.17;;;;;;;34.23;25.89;99711.72;5063498;28;20036;-69
2022/07/16 07:40:28;;;;;;;109.80;6.93;;;;;;;34.54;25.17;99719.09;5063519;28;20040;-69
2022/07/16 07:42:56;;;;;;;9.00;2.30;;;;;;;34.77;24.94;99715.06;5081564;28;20043;-69
2022/07/16 07:45:22;;;;;;;15.65;2.20;;;;;;;34.66;25.47;99715.72;5085422;28;20341;-68
2022/07/16 07:47:47;;;;;;;22.88;2.60;;;;;;;34.93;24.35;99718.19;5085314;28;20020;-69
2022/07/16 07:50:13;;;;;;;16.25;2.42;;;;;;;34.72;25.04;99719.94;5084130;28;20035;-69
2022/07/16 07:52:39;;;;;;;21.35;2.50;;;;;;;34.99;24.81;99727.06;5083364;28;20104;-69
2022/07/16 07:55:06;;;;;;;19.75;2.28;;;;;;;35.21;24.82;99727.69;5061492;28;20035;-69
2022/07/16 07:57:31;;;;;;;9.45;2.22;;;;;;;35.01;24.49;99714.59;5061442;28;20040;-69
2022/07/16 07:59:57;;;;;;;10.48;3.13;;;;;;;35.06;25.01;99722.69;5062144;28;20406;-69
2022/07/16 08:02:22;;;;;;;6.70;1.40;;;;;;;35.07;25.56;99718.81;5064691;28;20052;-69
2022/07/16 08:04:48;;;;;;;16.45;3.00;;;;;;;34.71;25.07;99715.56;5063246;28;20392;-69
2022/07/16 08:07:13;;;;;;;16.05;2.22;;;;;;;34.87;24.60;99720.28;5060552;28;20052;-69
2022/07/16 08:09:39;;;;;;;8.32;1.70;;;;;;;35.05;24.39;99710.06;5061920;28;20110;-69
2022/07/16 08:12:05;;;;;;;35.70;3.60;;;;;;;35.46;24.80;99712.31;5062593;28;20060;-69
2022/07/16 08:14:30;;;;;;;24.08;2.88;;;;;;;35.60;24.35;99714.06;5061936;28;20060;-69
2022/07/16 08:16:57;;;;;;;23.13;2.22;;;;;;;35.72;23.54;99706.72;5062040;28;20082;-69
2022/07/16 08:19:23;;;;;;;21.70;2.92;;;;;;;35.78;23.65;99707.34;5061897;28;20084;-69
2022/07/16 08:21:49;;;;;;;8.30;1.80;;;;;;;35.80;24.00;99699.56;5061216;28;20045;-69
2022/07/16 08:26:59;;;;;;;9.48;3.83;;;;;;;36.12;23.59;99695.38;5080533;28;20039;-69
2022/07/16 08:29:24;;;;;;;37.47;8.15;;;;;;;35.82;23.91;99700.06;5082822;28;20535;-69
2022/07/16 08:31:50;;;;;;;86.03;11.18;;;;;;;36.09;23.59;99694.09;5079507;28;20047;-69
2022/07/16 08:34:16;;;;;;;46.50;4.07;;;;;;;36.22;23.54;99686.72;5082383;28;20032;-69
2022/07/16 08:36:41;;;;;;;26.67;2.75;;;;;;;36.55;23.37;99692.38;5081416;28;20032;-69
2022/07/16 08:39:07;;;;;;;12.05;2.05;;;;;;;36.32;22.36;99691.06;5081690;28;20025;-69
2022/07/16 08:41:33;;;;;;;14.95;2.15;;;;;;;36.40;22.83;99690.19;5081086;28;20349;-69
2022/07/16 08:44:00;;;;;;;48.47;4.32;;;;;;;36.39;23.50;99699.63;5080308;28;20376;-69
2022/07/16 08:46:26;;;;;;;8.52;1.73;;;;;;;36.79;22.13;99685.41;5081428;28;20036;-69
2022/07/16 08:48:52;;;;;;;11.15;2.45;;;;;;;36.81;22.56;99677.59;5079532;28;20043;-69
2022/07/16 08:51:30;;;;;;;3.83;1.40;;;;;;;36.82;21.72;99684.72;5080680;28;20036;-69
2022/07/16 08:54:03;;;;;;;2.67;1.65;;;;;;;36.89;21.89;99685.81;5080205;28;20376;-68
2022/07/16 08:56:30;;;;;;;7.63;1.60;;;;;;;36.70;22.28;99688.22;5082237;28;20317;-69
2022/07/16 08:58:56;;;;;;;7.47;1.70;;;;;;;36.83;21.55;99678.06;5081317;28;20361;-69
2022/07/16 09:01:21;;;;;;;6.85;2.17;;;;;;;36.79;21.93;99677.94;5099960;28;20039;-69
2022/07/16 09:03:47;;;;;;;2.60;1.55;;;;;;;37.05;21.24;99686.78;5081623;28;20038;-69
2022/07/16 09:06:12;;;;;;;4.22;1.73;;;;;;;37.18;21.20;99679.34;5084845;28;20090;-69
2022/07/16 09:08:37;;;;;;;1.73;1.60;;;;;;;36.88;21.92;99659.34;5078948;28;20032;-69
2022/07/16 09:11:23;;;;;;;9.07;1.48;;;;;;;36.94;21.59;99684.78;5082920;28;20047;-69
2022/07/16 09:14:15;;;;;;;8.68;1.48;;;;;;;36.83;21.86;99678.88;5082748;28;20028;-69
2022/07/16 09:16:42;;;;;;;7.53;1.92;;;;;;;37.00;22.38;99678.72;5076096;28;20042;-69
2022/07/16 09:19:10;;;;;;;4.80;1.52;;;;;;;37.06;21.24;99682.06;5080148;28;20214;-69
2022/07/16 09:21:56;;;;;;;2.67;1.35;;;;;;;37.19;21.35;99674.63;5081281;28;20060;-69
2022/07/16 09:24:43;;;;;;;5.20;1.80;;;;;;;36.94;22.11;99671.00;5062709;28;20036;-69
2022/07/16 09:27:15;;;;;;;7.47;1.80;;;;;;;37.01;22.35;99666.53;5083869;28;20039;-69
2022/07/16 09:29:45;;;;;;;4.70;1.70;;;;;;;37.07;21.67;99673.44;5082130;28;20082;-69
2022/07/16 09:32:12;;;;;;;6.50;1.80;;;;;;;37.07;22.17;99669.88;5080773;28;20040;-69
2022/07/16 09:34:38;;;;;;;5.95;1.90;;;;;;;37.02;21.89;99672.84;5080089;28;20345;-68
2022/07/16 09:37:07;;;;;;;10.95;1.85;;;;;;;36.88;21.51;99661.31;5081812;28;20027;-69
2022/07/16 09:39:34;;;;;;;4.60;1.88;;;;;;;36.48;22.37;99669.25;5080265;28;20162;-69
2022/07/16 09:42:00;;;;;;;2.97;1.60;;;;;;;36.51;21.91;99665.81;5081026;28;20322;-69
2022/07/16 09:44:29;;;;;;;6.07;1.75;;;;;;;36.47;22.75;99665.69;5080808;28;20051;-69
2022/07/16 09:46:57;;;;;;;13.85;2.22;;;;;;;36.37;22.45;99666.84;5062000;28;20020;-69
2022/07/16 09:49:23;;;;;;;4.35;1.85;;;;;;;36.30;22.61;99661.06;5082943;28;20028;-69
2022/07/16 09:51:48;;;;;;;4.75;1.48;;;;;;;36.39;23.15;99658.25;5081577;28;20036;-69
2022/07/16 09:54:26;;;;;;;4.50;1.80;;;;;;;36.22;22.43;99626.06;5080164;28;20037;-69
2022/07/16 09:57:07;;;;;;;4.07;1.55;;;;;;;36.39;22.46;99658.25;5084685;28;20036;-69
2022/07/16 09:59:32;;;;;;;5.03;1.60;;;;;;;36.23;22.79;99651.69;5094267;28;20038;-69
2022/07/16 10:01:58;;;;;;;4.75;1.48;;;;;;;36.43;22.73;99654.53;5069963;28;20024;-70
2022/07/16 10:04:24;;;;;;;3.92;1.63;;;;;;;36.41;22.21;99644.94;5099113;28;20053;-69
2022/07/16 10:06:49;;;;;;;2.97;1.80;;;;;;;36.35;21.60;99657.31;5085217;28;20043;-69
2022/07/16 10:09:15;;;;;;;9.73;1.90;;;;;;;36.36;22.81;99650.66;5085547;28;20207;-69
2022/07/16 10:11:43;;;;;;;3.33;1.83;;;;;;;36.15;22.22;99645.91;5089673;28;20036;-69
2022/07/16 10:14:09;;;;;;;2.28;1.63;;;;;;;35.92;22.07;99638.28;5094265;28;20032;-69
2022/07/16 10:16:39;;;;;;;4.38;1.85;;;;;;;35.93;22.75;99645.41;5084849;28;20036;-68
2022/07/16 10:19:04;;;;;;;5.15;1.50;;;;;;;36.19;21.47;99642.47;5085182;28;20092;-69
2022/07/16 10:21:29;;;;;;;9.10;1.80;;;;;;;35.95;21.66;99632.91;5084971;28;20214;-69
2022/07/16 10:24:08;;;;;;;4.82;2.05;;;;;;;36.10;21.44;99637.81;5084833;28;20110;-69
2022/07/16 10:26:34;;;;;;;5.03;2.00;;;;;;;35.83;22.72;99624.53;5084982;28;20176;-69
2022/07/16 10:29:01;;;;;;;3.03;1.70;;;;;;;35.72;22.47;99624.09;5092319;28;20048;-69
2022/07/16 10:34:36;;;;;;;2.78;1.65;;;;;;;36.06;22.08;99622.28;5084957;28;20252;-69
2022/07/16 10:37:04;;;;;;;6.30;2.00;;;;;;;35.82;22.95;99618.22;5084744;28;20040;-69
2022/07/16 10:39:30;;;;;;;5.60;1.90;;;;;;;35.98;22.63;99621.22;5084560;28;20376;-69
2022/07/16 10:42:01;;;;;;;4.10;2.00;;;;;;;36.02;22.68;99608.38;5084738;28;20036;-69
2022/07/16 10:44:47;;;;;;;4.20;1.73;;;;;;;36.12;22.60;99612.69;5084813;28;20028;-69
2022/07/16 10:47:14;;;;;;;2.90;1.85;;;;;;;36.26;22.83;99606.91;5086496;28;20061;-69
2022/07/16 10:49:41;;;;;;;5.65;4.35;;;;;;;36.31;21.82;99610.31;5094177;28;20043;-69
2022/07/16 10:52:14;;;;;;;17.10;3.97;;;;;;;36.17;22.91;99597.91;5084475;28;20021;-70
2022/07/16 10:54:49;;;;;;;6.53;3.80;;;;;;;36.19;23.69;99596.41;5084210;28;20210;-69
2022/07/16 10:57:16;;;;;;;6.93;2.00;;;;;;;36.39;22.71;99600.34;5084292;28;20099;-69
2022/07/16 10:59:43;;;;;;;3.58;1.88;;;;;;;36.51;23.05;99594.91;5084283;28;20036;-69
2022/07/16 11:02:11;;;;;;;2.40;1.75;;;;;;;36.54;22.63;99593.44;5084256;28;20341;-69
2022/07/16 11:04:47;;;;;;;4.97;1.85;;;;;;;36.36;22.35;99587.22;5096387;28;20032;-68
2022/07/16 11:07:16;;;;;;;4.18;2.20;;;;;;;36.50;20.95;99592.50;5083954;28;20028;-69
2022/07/16 11:09:49;;;;;;;4.22;3.13;;;;;;;36.17;22.49;99589.63;5083609;28;20267;-68
2022/07/16 11:12:19;;;;;;;5.72;3.40;;;;;;;36.08;22.39;99587.75;5082986;28;20040;-68
2022/07/16 11:14:47;;;;;;;6.43;4.18;;;;;;;35.98;22.35;99588.16;5082714;28;20096;-69
2022/07/16 11:17:13;;;;;;;3.47;2.00;;;;;;;36.04;23.23;99577.72;5084998;28;20109;-68
2022/07/16 11:19:42;;;;;;;5.55;2.75;;;;;;;36.10;22.87;99584.66;5081508;28;20254;-68
2022/07/16 11:22:08;;;;;;;5.95;2.08;;;;;;;36.21;23.14;99580.34;5084017;28;20041;-69
2022/07/16 11:24:34;;;;;;;3.92;2.00;;;;;;;36.39;22.71;99578.28;5081755;28;20096;-69
2022/07/16 11:27:01;;;;;;;3.78;1.83;;;;;;;36.52;22.25;99587.44;5066931;28;20330;-69
2022/07/16 11:29:28;;;;;;;4.53;1.75;;;;;;;36.51;21.95;99585.84;5083366;28;20369;-69
2022/07/16 11:31:55;;;;;;;6.10;2.00;;;;;;;36.61;21.82;99594.50;5082097;28;20044;-69
2022/07/16 11:34:22;;;;;;;3.28;1.70;;;;;;;36.58;21.86;99583.34;5086123;28;20024;-68
2022/07/16 11:36:51;;;;;;;2.38;1.67;;;;;;;36.61;22.00;99585.41;5082408;28;20039;-69
2022/07/16 11:39:19;;;;;;;6.35;2.15;;;;;;;36.55;21.54;99592.28;5082919;28;20028;-68